sensor_id;sensor_type;location;lat;lon;timestamp;pressure;altitude;pressure_sealevel;temperature
8533;BMP280;4304;53.876;10.662;2022-07-06T00:01:30;115735.44;;;-139.81
8533;BMP280;4304;53.876;10.662;2022-07-06T00:03:56;115735.44;;;-139.81
8533;BMP280;4304;53.876;10.662;2022-07-06T00:06:22;115735.44;;;-139.81
8533;BMP280;4304;53.876;10.662;2022-07-06T00:08:47;115735.44;;;-139.81
8533;BMP280;4304;53.876;10.662;2022-07-06T00:11:12;115735.44;;;-139.81
8533;BMP280;4304;53.876;10.662;2022-07-06T00:13:38;115735.44;;;-139.81
8533;BMP280;4304;53.876;10.662;2022-07-06T00:16:03;115735.44;;;-139.81
8533;BMP280;4304;53.876;10.662;2022-07-06T00:18:29;115735.44;;;-139.81
8533;BMP280;4304;53.876;10.662;2022-07-06T00:20:54;115735.44;;;-139.81
8533;BMP280;4304;53.876;10.662;2022-07-06T00:23:20;115475.81;;;-139.81
8533;BMP280;4304;53.876;10.662;2022-07-06T00:25:45;115735.44;;;-139.81
8533;BMP280;4304;53.876;10.662;2022-07-06T00:28:11;115475.81;;;-139.81
8533;BMP280;4304;53.876;10.662;2022-07-06T00:30:36;115475.81;;;-139.81
8533;BMP280;4304;53.876;10.662;2022-07-06T00:33:01;115475.81;;;-139.81
8533;BMP280;4304;53.876;10.662;2022-07-06T00:35:27;115475.81;;;-139.81
8533;BMP280;4304;53.876;10.662;2022-07-06T00:37:53;115475.81;;;-139.81
8533;BMP280;4304;53.876;10.662;2022-07-06T00:40:18;115475.81;;;-139.81
8533;BMP280;4304;53.876;10.662;2022-07-06T00:42:46;115475.81;;;-139.81
8533;BMP280;4304;53.876;10.662;2022-07-06T00:45:13;115475.81;;;-139.81
8533;BMP280;4304;53.876;10.662;2022-07-06T00:47:39;115475.81;;;-139.81
8533;BMP280;4304;53.876;10.662;2022-07-06T00:50:06;115475.81;;;-139.81
8533;BMP280;4304;53.876;10.662;2022-07-06T00:52:52;115475.81;;;-139.81
8533;BMP280;4304;53.876;10.662;2022-07-06T00:55:20;115475.81;;;-139.81
8533;BMP280;4304;53.876;10.662;2022-07-06T00:57:46;115475.81;;;-139.81
8533;BMP280;4304;53.876;10.662;2022-07-06T01:00:13;115475.81;;;-139.81
8533;BMP280;4304;53.876;10.662;2022-07-06T01:02:39;115475.81;;;-139.81
8533;BMP280;4304;53.876;10.662;2022-07-06T01:05:06;115475.81;;;-139.81
8533;BMP280;4304;53.876;10.662;2022-07-06T01:07:32;115475.81;;;-139.81
8533;BMP280;4304;53.876;10.662;2022-07-06T01:09:57;115475.81;;;-139.81
8533;BMP280;4304;53.876;10.662;2022-07-06T01:12:23;115475.81;;;-139.81
8533;BMP280;4304;53.876;10.662;2022-07-06T01:14:51;115475.81;;;-139.81
8533;BMP280;4304;53.876;10.662;2022-07-06T01:17:19;115475.81;;;-139.81
8533;BMP280;4304;53.876;10.662;2022-07-06T01:19:45;115475.81;;;-139.81
8533;BMP280;4304;53.876;10.662;2022-07-06T01:22:11;115475.81;;;-139.81
8533;BMP280;4304;53.876;10.662;2022-07-06T01:24:37;115475.81;;;-139.81
8533;BMP280;4304;53.876;10.662;2022-07-06T01:27:04;115475.81;;;-139.81
8533;BMP280;4304;53.876;10.662;2022-07-06T01:29:30;115475.81;;;-139.81
8533;BMP280;4304;53.876;10.662;2022-07-06T01:31:55;115475.81;;;-139.81
8533;BMP280;4304;53.876;10.662;2022-07-06T01:34:21;115475.81;;;-139.81
8533;BMP280;4304;53.876;10.662;2022-07-06T01:36:46;115735.44;;;-139.81
8533;BMP280;4304;53.876;10.662;2022-07-06T01:39:12;115475.81;;;-139.81
8533;BMP280;4304;53.876;10.662;2022-07-06T01:41:37;115475.81;;;-139.81
8533;BMP280;4304;53.876;10.662;2022-07-06T01:44:03;115475.81;;;-139.81
8533;BMP280;4304;53.876;10.662;2022-07-06T01:46:29;115475.81;;;-139.81
8533;BMP280;4304;53.876;10.662;2022-07-06T01:48:55;115475.81;;;-139.81
8533;BMP280;4304;53.876;10.662;2022-07-06T01:51:21;115475.81;;;-139.81
8533;BMP280;4304;53.876;10.662;2022-07-06T01:53:46;115475.81;;;-139.81
8533;BMP280;4304;53.876;10.662;2022-07-06T01:56:13;115735.44;;;-139.81
8533;BMP280;4304;53.876;10.662;2022-07-06T01:58:39;115475.81;;;-139.81
8533;BMP280;4304;53.876;10.662;2022-07-06T02:01:13;115735.44;;;-139.81
8533;BMP280;4304;53.876;10.662;2022-07-06T02:03:38;115475.81;;;-139.81
8533;BMP280;4304;53.876;10.662;2022-07-06T02:06:05;115475.81;;;-139.81
8533;BMP280;4304;53.876;10.662;2022-07-06T02:08:31;115475.81;;;-139.81
8533;BMP280;4304;53.876;10.662;2022-07-06T02:10:57;115735.44;;;-139.81
8533;BMP280;4304;53.876;10.662;2022-07-06T02:13:23;115735.44;;;-139.81
8533;BMP280;4304;53.876;10.662;2022-07-06T02:15:48;115475.81;;;-139.81
8533;BMP280;4304;53.876;10.662;2022-07-06T02:18:13;115735.44;;;-139.81
8533;BMP280;4304;53.876;10.662;2022-07-06T02:20:38;115735.44;;;-139.81
8533;BMP280;4304;53.876;10.662;2022-07-06T02:23:04;115735.44;;;-139.81
8533;BMP280;4304;53.876;10.662;2022-07-06T02:25:29;115735.44;;;-139.81
8533;BMP280;4304;53.876;10.662;2022-07-06T02:27:54;115735.44;;;-139.81
8533;BMP280;4304;53.876;10.662;2022-07-06T02:30:20;115735.44;;;-139.81
8533;BMP280;4304;53.876;10.662;2022-07-06T02:32:45;115735.44;;;-139.81
8533;BMP280;4304;53.876;10.662;2022-07-06T02:35:11;115735.44;;;-139.81
8533;BMP280;4304;53.876;10.662;2022-07-06T02:37:37;115735.44;;;-139.81
8533;BMP280;4304;53.876;10.662;2022-07-06T02:40:03;115735.44;;;-139.81
8533;BMP280;4304;53.876;10.662;2022-07-06T02:42:29;115735.44;;;-139.81
8533;BMP280;4304;53.876;10.662;2022-07-06T02:44:54;115735.44;;;-139.81
8533;BMP280;4304;53.876;10.662;2022-07-06T02:47:20;115735.44;;;-139.81
8533;BMP280;4304;53.876;10.662;2022-07-06T02:49:45;115735.44;;;-139.81
8533;BMP280;4304;53.876;10.662;2022-07-06T02:52:10;115735.44;;;-139.81
8533;BMP280;4304;53.876;10.662;2022-07-06T02:54:36;115735.44;;;-139.81
8533;BMP280;4304;53.876;10.662;2022-07-06T02:57:01;115735.44;;;-139.81
8533;BMP280;4304;53.876;10.662;2022-07-06T02:59:26;115735.44;;;-139.81
8533;BMP280;4304;53.876;10.662;2022-07-06T03:01:52;115735.44;;;-139.81
8533;BMP280;4304;53.876;10.662;2022-07-06T03:04:17;115735.44;;;-139.81
8533;BMP280;4304;53.876;10.662;2022-07-06T03:06:42;115735.44;;;-139.81
8533;BMP280;4304;53.876;10.662;2022-07-06T03:09:08;115735.44;;;-139.81
8533;BMP280;4304;53.876;10.662;2022-07-06T03:11:33;115735.44;;;-139.81
8533;BMP280;4304;53.876;10.662;2022-07-06T03:14:02;115735.44;;;-139.81
8533;BMP280;4304;53.876;10.662;2022-07-06T03:16:28;115735.44;;;-139.81
8533;BMP280;4304;53.876;10.662;2022-07-06T03:18:53;115735.44;;;-139.81
8533;BMP280;4304;53.876;10.662;2022-07-06T03:21:18;115735.44;;;-139.81
8533;BMP280;4304;53.876;10.662;2022-07-06T03:23:44;115735.44;;;-139.81
8533;BMP280;4304;53.876;10.662;2022-07-06T03:26:09;115735.44;;;-139.81
8533;BMP280;4304;53.876;10.662;2022-07-06T03:28:34;115735.44;;;-139.81
8533;BMP280;4304;53.876;10.662;2022-07-06T03:30:59;115735.44;;;-139.81
8533;BMP280;4304;53.876;10.662;2022-07-06T03:33:25;115735.44;;;-139.81
8533;BMP280;4304;53.876;10.662;2022-07-06T03:35:50;115735.44;;;-139.81
8533;BMP280;4304;53.876;10.662;2022-07-06T03:38:15;115735.44;;;-139.81
8533;BMP280;4304;53.876;10.662;2022-07-06T03:40:41;115735.44;;;-139.81
8533;BMP280;4304;53.876;10.662;2022-07-06T03:43:06;115735.44;;;-139.81
8533;BMP280;4304;53.876;10.662;2022-07-06T03:45:32;115735.44;;;-139.81
8533;BMP280;4304;53.876;10.662;2022-07-06T03:47:57;115735.44;;;-139.81
8533;BMP280;4304;53.876;10.662;2022-07-06T03:50:22;115735.44;;;-139.81
8533;BMP280;4304;53.876;10.662;2022-07-06T03:52:48;115735.44;;;-139.81
8533;BMP280;4304;53.876;10.662;2022-07-06T03:55:13;115735.44;;;-139.81
8533;BMP280;4304;53.876;10.662;2022-07-06T03:57:39;115735.44;;;-139.81
8533;BMP280;4304;53.876;10.662;2022-07-06T04:00:06;115735.44;;;-139.81
8533;BMP280;4304;53.876;10.662;2022-07-06T04:02:32;115735.44;;;-139.81
8533;BMP280;4304;53.876;10.662;2022-07-06T04:04:57;115995.09;;;-139.81
8533;BMP280;4304;53.876;10.662;2022-07-06T04:07:23;115995.09;;;-139.81
8533;BMP280;4304;53.876;10.662;2022-07-06T04:09:48;115995.09;;;-139.81
8533;BMP280;4304;53.876;10.662;2022-07-06T04:12:13;115995.09;;;-139.81
8533;BMP280;4304;53.876;10.662;2022-07-06T04:14:39;115995.09;;;-139.81
8533;BMP280;4304;53.876;10.662;2022-07-06T04:17:04;115995.09;;;-139.81
8533;BMP280;4304;53.876;10.662;2022-07-06T04:19:50;115735.44;;;-139.81
8533;BMP280;4304;53.876;10.662;2022-07-06T04:22:15;115735.44;;;-139.81
8533;BMP280;4304;53.876;10.662;2022-07-06T04:24:40;115995.09;;;-139.81
8533;BMP280;4304;53.876;10.662;2022-07-06T04:27:06;115735.44;;;-139.81
8533;BMP280;4304;53.876;10.662;2022-07-06T04:29:31;115735.44;;;-139.81
8533;BMP280;4304;53.876;10.662;2022-07-06T04:31:56;115735.44;;;-139.81
8533;BMP280;4304;53.876;10.662;2022-07-06T04:34:22;115735.44;;;-139.81
8533;BMP280;4304;53.876;10.662;2022-07-06T04:36:47;115735.44;;;-139.81
8533;BMP280;4304;53.876;10.662;2022-07-06T04:39:12;115735.44;;;-139.81
8533;BMP280;4304;53.876;10.662;2022-07-06T04:41:38;115735.44;;;-139.81
8533;BMP280;4304;53.876;10.662;2022-07-06T04:44:03;115735.44;;;-139.81
8533;BMP280;4304;53.876;10.662;2022-07-06T04:46:28;115735.44;;;-139.81
8533;BMP280;4304;53.876;10.662;2022-07-06T04:48:54;115735.44;;;-139.81
8533;BMP280;4304;53.876;10.662;2022-07-06T04:51:19;115735.44;;;-139.81
8533;BMP280;4304;53.876;10.662;2022-07-06T04:53:45;115735.44;;;-139.81
8533;BMP280;4304;53.876;10.662;2022-07-06T04:56:11;115735.44;;;-139.81
8533;BMP280;4304;53.876;10.662;2022-07-06T04:58:36;115735.44;;;-139.81
8533;BMP280;4304;53.876;10.662;2022-07-06T05:01:01;115735.44;;;-139.81
8533;BMP280;4304;53.876;10.662;2022-07-06T05:03:27;115735.44;;;-139.81
8533;BMP280;4304;53.876;10.662;2022-07-06T05:05:52;115735.44;;;-139.81
8533;BMP280;4304;53.876;10.662;2022-07-06T05:08:18;115995.09;;;-139.81
8533;BMP280;4304;53.876;10.662;2022-07-06T05:10:43;115735.44;;;-139.81
8533;BMP280;4304;53.876;10.662;2022-07-06T05:13:08;115735.44;;;-139.81
8533;BMP280;4304;53.876;10.662;2022-07-06T05:15:34;115735.44;;;-139.81
8533;BMP280;4304;53.876;10.662;2022-07-06T05:17:59;115735.44;;;-139.81
8533;BMP280;4304;53.876;10.662;2022-07-06T05:20:24;115735.44;;;-139.81
8533;BMP280;4304;53.876;10.662;2022-07-06T05:22:50;115735.44;;;-139.81
8533;BMP280;4304;53.876;10.662;2022-07-06T05:25:15;115735.44;;;-139.81
8533;BMP280;4304;53.876;10.662;2022-07-06T05:27:40;115995.09;;;-139.81
8533;BMP280;4304;53.876;10.662;2022-07-06T05:30:06;115995.09;;;-139.81
8533;BMP280;4304;53.876;10.662;2022-07-06T05:32:31;115995.09;;;-139.81
8533;BMP280;4304;53.876;10.662;2022-07-06T05:34:57;115995.09;;;-139.81
8533;BMP280;4304;53.876;10.662;2022-07-06T05:37:22;115995.09;;;-139.81
8533;BMP280;4304;53.876;10.662;2022-07-06T05:39:47;115995.09;;;-139.81
8533;BMP280;4304;53.876;10.662;2022-07-06T05:42:14;116254.75;;;-139.81
8533;BMP280;4304;53.876;10.662;2022-07-06T05:44:40;116254.75;;;-139.81
8533;BMP280;4304;53.876;10.662;2022-07-06T05:47:05;116254.75;;;-139.81
8533;BMP280;4304;53.876;10.662;2022-07-06T05:49:49;116254.75;;;-139.81
8533;BMP280;4304;53.876;10.662;2022-07-06T05:52:33;116254.75;;;-139.81
8533;BMP280;4304;53.876;10.662;2022-07-06T05:54:58;116254.75;;;-139.81
8533;BMP280;4304;53.876;10.662;2022-07-06T05:57:24;116254.75;;;-139.81
8533;BMP280;4304;53.876;10.662;2022-07-06T05:59:49;116514.44;;;-139.81
8533;BMP280;4304;53.876;10.662;2022-07-06T06:02:14;116514.44;;;-139.81
8533;BMP280;4304;53.876;10.662;2022-07-06T06:04:40;116514.44;;;-139.81
8533;BMP280;4304;53.876;10.662;2022-07-06T06:07:05;116514.44;;;-139.81
8533;BMP280;4304;53.876;10.662;2022-07-06T06:09:30;116514.44;;;-139.81
8533;BMP280;4304;53.876;10.662;2022-07-06T06:11:56;116514.44;;;-139.81
8533;BMP280;4304;53.876;10.662;2022-07-06T06:14:21;116514.44;;;-139.81
8533;BMP280;4304;53.876;10.662;2022-07-06T06:16:46;116514.44;;;-139.81
8533;BMP280;4304;53.876;10.662;2022-07-06T06:19:12;116514.44;;;-139.81
8533;BMP280;4304;53.876;10.662;2022-07-06T06:21:37;116514.44;;;-139.81
8533;BMP280;4304;53.876;10.662;2022-07-06T06:24:02;116514.44;;;-139.81
8533;BMP280;4304;53.876;10.662;2022-07-06T06:26:28;116774.16;;;-139.81
8533;BMP280;4304;53.876;10.662;2022-07-06T06:28:53;116774.16;;;-139.81
8533;BMP280;4304;53.876;10.662;2022-07-06T06:31:18;116774.16;;;-139.81
8533;BMP280;4304;53.876;10.662;2022-07-06T06:33:43;116774.16;;;-139.81
8533;BMP280;4304;53.876;10.662;2022-07-06T06:36:09;116774.16;;;-139.81
8533;BMP280;4304;53.876;10.662;2022-07-06T06:38:34;116774.16;;;-139.81
8533;BMP280;4304;53.876;10.662;2022-07-06T06:41:00;116774.16;;;-139.81
8533;BMP280;4304;53.876;10.662;2022-07-06T06:43:26;116774.16;;;-139.81
8533;BMP280;4304;53.876;10.662;2022-07-06T06:45:52;116774.16;;;-139.81
8533;BMP280;4304;53.876;10.662;2022-07-06T06:48:17;116774.16;;;-139.81
8533;BMP280;4304;53.876;10.662;2022-07-06T06:50:44;116774.16;;;-139.81
8533;BMP280;4304;53.876;10.662;2022-07-06T06:53:10;116774.16;;;-139.81
8533;BMP280;4304;53.876;10.662;2022-07-06T06:55:36;116774.16;;;-139.81
8533;BMP280;4304;53.876;10.662;2022-07-06T06:58:01;116774.16;;;-139.81
8533;BMP280;4304;53.876;10.662;2022-07-06T07:00:26;116774.16;;;-139.81
8533;BMP280;4304;53.876;10.662;2022-07-06T07:02:52;116774.16;;;-139.81
8533;BMP280;4304;53.876;10.662;2022-07-06T07:05:17;116774.16;;;-139.81
8533;BMP280;4304;53.876;10.662;2022-07-06T07:07:43;116774.16;;;-139.81
8533;BMP280;4304;53.876;10.662;2022-07-06T07:10:09;116774.16;;;-139.81
8533;BMP280;4304;53.876;10.662;2022-07-06T07:12:34;116774.16;;;-139.81
8533;BMP280;4304;53.876;10.662;2022-07-06T07:15:00;116774.16;;;-139.81
8533;BMP280;4304;53.876;10.662;2022-07-06T07:17:26;116774.16;;;-139.81
8533;BMP280;4304;53.876;10.662;2022-07-06T07:19:51;116774.16;;;-139.81
8533;BMP280;4304;53.876;10.662;2022-07-06T07:22:17;117033.91;;;-139.81
8533;BMP280;4304;53.876;10.662;2022-07-06T07:24:43;117033.91;;;-139.81
8533;BMP280;4304;53.876;10.662;2022-07-06T07:27:08;117033.91;;;-139.81
8533;BMP280;4304;53.876;10.662;2022-07-06T07:29:37;117033.91;;;-139.81
8533;BMP280;4304;53.876;10.662;2022-07-06T07:32:03;117033.91;;;-139.81
8533;BMP280;4304;53.876;10.662;2022-07-06T07:34:28;117033.91;;;-139.81
8533;BMP280;4304;53.876;10.662;2022-07-06T07:36:54;117033.91;;;-139.81
8533;BMP280;4304;53.876;10.662;2022-07-06T07:39:19;117033.91;;;-139.81
8533;BMP280;4304;53.876;10.662;2022-07-06T07:41:45;117033.91;;;-139.81
8533;BMP280;4304;53.876;10.662;2022-07-06T07:44:12;117033.91;;;-139.81
8533;BMP280;4304;53.876;10.662;2022-07-06T07:46:38;117033.91;;;-139.81
8533;BMP280;4304;53.876;10.662;2022-07-06T07:49:03;117033.91;;;-139.81
8533;BMP280;4304;53.876;10.662;2022-07-06T07:51:29;117033.91;;;-139.81
8533;BMP280;4304;53.876;10.662;2022-07-06T07:53:54;117033.91;;;-139.81
8533;BMP280;4304;53.876;10.662;2022-07-06T07:56:20;117033.91;;;-139.81
8533;BMP280;4304;53.876;10.662;2022-07-06T07:58:45;117033.91;;;-139.81
8533;BMP280;4304;53.876;10.662;2022-07-06T08:01:11;117033.91;;;-139.81
8533;BMP280;4304;53.876;10.662;2022-07-06T08:03:36;117033.91;;;-139.81
8533;BMP280;4304;53.876;10.662;2022-07-06T08:06:02;117293.66;;;-139.81
8533;BMP280;4304;53.876;10.662;2022-07-06T08:08:27;117293.66;;;-139.81
8533;BMP280;4304;53.876;10.662;2022-07-06T08:10:52;117293.66;;;-139.81
8533;BMP280;4304;53.876;10.662;2022-07-06T08:13:18;117293.66;;;-139.81
8533;BMP280;4304;53.876;10.662;2022-07-06T08:15:43;117293.66;;;-139.81
8533;BMP280;4304;53.876;10.662;2022-07-06T08:18:09;117293.66;;;-139.81
8533;BMP280;4304;53.876;10.662;2022-07-06T08:20:35;117293.66;;;-139.81
8533;BMP280;4304;53.876;10.662;2022-07-06T08:23:01;117293.66;;;-139.81
8533;BMP280;4304;53.876;10.662;2022-07-06T08:25:26;117293.66;;;-139.81
8533;BMP280;4304;53.876;10.662;2022-07-06T08:27:52;117293.66;;;-139.81
8533;BMP280;4304;53.876;10.662;2022-07-06T08:30:18;117293.66;;;-139.81
8533;BMP280;4304;53.876;10.662;2022-07-06T08:32:43;117293.66;;;-139.81
8533;BMP280;4304;53.876;10.662;2022-07-06T08:35:10;117293.66;;;-139.81
8533;BMP280;4304;53.876;10.662;2022-07-06T08:37:36;117293.66;;;-139.81
8533;BMP280;4304;53.876;10.662;2022-07-06T08:40:02;117293.66;;;-139.81
8533;BMP280;4304;53.876;10.662;2022-07-06T08:42:33;117295.69;;;-139.81
8533;BMP280;4304;53.876;10.662;2022-07-06T08:45:00;117295.69;;;-139.81
8533;BMP280;4304;53.876;10.662;2022-07-06T08:47:27;117295.69;;;-139.81
8533;BMP280;4304;53.876;10.662;2022-07-06T08:49:53;117293.66;;;-139.81
8533;BMP280;4304;53.876;10.662;2022-07-06T08:52:19;117293.66;;;-139.81
8533;BMP280;4304;53.876;10.662;2022-07-06T08:54:45;117293.66;;;-139.81
8533;BMP280;4304;53.876;10.662;2022-07-06T08:57:11;117293.66;;;-139.81
8533;BMP280;4304;53.876;10.662;2022-07-06T08:59:38;117293.66;;;-139.81
8533;BMP280;4304;53.876;10.662;2022-07-06T09:02:04;117293.66;;;-139.81
8533;BMP280;4304;53.876;10.662;2022-07-06T09:04:32;117293.66;;;-139.81
8533;BMP280;4304;53.876;10.662;2022-07-06T09:06:59;117293.66;;;-139.81
8533;BMP280;4304;53.876;10.662;2022-07-06T09:09:25;117293.66;;;-139.81
8533;BMP280;4304;53.876;10.662;2022-07-06T09:11:53;117293.66;;;-139.81
8533;BMP280;4304;53.876;10.662;2022-07-06T09:14:19;117293.66;;;-139.81
8533;BMP280;4304;53.876;10.662;2022-07-06T09:16:46;117293.66;;;-139.81
8533;BMP280;4304;53.876;10.662;2022-07-06T09:19:12;117293.66;;;-139.81
8533;BMP280;4304;53.876;10.662;2022-07-06T09:21:39;117293.66;;;-139.81
8533;BMP280;4304;53.876;10.662;2022-07-06T09:24:09;117293.66;;;-139.81
8533;BMP280;4304;53.876;10.662;2022-07-06T09:26:35;117293.66;;;-139.81
8533;BMP280;4304;53.876;10.662;2022-07-06T09:29:00;117293.66;;;-139.81
8533;BMP280;4304;53.876;10.662;2022-07-06T09:31:26;117293.66;;;-139.81
8533;BMP280;4304;53.876;10.662;2022-07-06T09:39:28;117293.66;;;-139.81
8533;BMP280;4304;53.876;10.662;2022-07-06T09:42:02;117293.66;;;-139.81
8533;BMP280;4304;53.876;10.662;2022-07-06T09:44:40;117033.91;;;-139.81
8533;BMP280;4304;53.876;10.662;2022-07-06T09:47:07;117033.91;;;-139.81
8533;BMP280;4304;53.876;10.662;2022-07-06T09:49:34;117033.91;;;-139.81
8533;BMP280;4304;53.876;10.662;2022-07-06T09:52:17;117033.91;;;-139.81
8533;BMP280;4304;53.876;10.662;2022-07-06T09:54:48;117033.91;;;-139.81
8533;BMP280;4304;53.876;10.662;2022-07-06T09:57:14;116774.16;;;-139.81
8533;BMP280;4304;53.876;10.662;2022-07-06T09:59:39;116774.16;;;-139.81
8533;BMP280;4304;53.876;10.662;2022-07-06T10:02:06;116774.16;;;-139.81
8533;BMP280;4304;53.876;10.662;2022-07-06T10:04:32;116514.44;;;-139.81
8533;BMP280;4304;53.876;10.662;2022-07-06T10:06:58;116774.16;;;-139.81
8533;BMP280;4304;53.876;10.662;2022-07-06T10:09:26;116514.44;;;-139.81
8533;BMP280;4304;53.876;10.662;2022-07-06T10:11:55;116514.44;;;-139.81
8533;BMP280;4304;53.876;10.662;2022-07-06T10:14:32;116514.44;;;-139.81
8533;BMP280;4304;53.876;10.662;2022-07-06T10:17:00;116774.16;;;-139.81
8533;BMP280;4304;53.876;10.662;2022-07-06T10:19:28;116774.16;;;-139.81
8533;BMP280;4304;53.876;10.662;2022-07-06T10:21:56;117033.91;;;-139.81
8533;BMP280;4304;53.876;10.662;2022-07-06T10:24:25;117033.91;;;-139.81
8533;BMP280;4304;53.876;10.662;2022-07-06T10:26:51;117033.91;;;-139.81
8533;BMP280;4304;53.876;10.662;2022-07-06T10:29:19;117293.66;;;-139.81
8533;BMP280;4304;53.876;10.662;2022-07-06T10:31:47;117293.66;;;-139.81
8533;BMP280;4304;53.876;10.662;2022-07-06T10:34:14;117293.66;;;-139.81
8533;BMP280;4304;53.876;10.662;2022-07-06T10:36:43;117293.66;;;-139.81
8533;BMP280;4304;53.876;10.662;2022-07-06T10:39:10;117293.66;;;-139.81
8533;BMP280;4304;53.876;10.662;2022-07-06T10:41:54;117293.66;;;-139.81
8533;BMP280;4304;53.876;10.662;2022-07-06T10:44:23;117293.66;;;-139.81
8533;BMP280;4304;53.876;10.662;2022-07-06T10:46:50;117293.66;;;-139.81
8533;BMP280;4304;53.876;10.662;2022-07-06T10:49:16;117293.66;;;-139.81
8533;BMP280;4304;53.876;10.662;2022-07-06T10:51:42;117293.66;;;-139.81
8533;BMP280;4304;53.876;10.662;2022-07-06T10:54:09;117293.66;;;-139.81
8533;BMP280;4304;53.876;10.662;2022-07-06T10:56:39;117293.66;;;-139.81
8533;BMP280;4304;53.876;10.662;2022-07-06T10:59:17;117293.66;;;-139.81
8533;BMP280;4304;53.876;10.662;2022-07-06T11:02:21;117293.66;;;-139.81
8533;BMP280;4304;53.876;10.662;2022-07-06T11:04:48;117293.66;;;-139.81
8533;BMP280;4304;53.876;10.662;2022-07-06T11:07:17;117295.69;;;-139.81
8533;BMP280;4304;53.876;10.662;2022-07-06T11:09:57;117293.66;;;-139.81
8533;BMP280;4304;53.876;10.662;2022-07-06T11:12:23;117293.66;;;-139.81
8533;BMP280;4304;53.876;10.662;2022-07-06T11:14:50;117295.69;;;-139.81
8533;BMP280;4304;53.876;10.662;2022-07-06T11:17:16;117293.66;;;-139.81
8533;BMP280;4304;53.876;10.662;2022-07-06T11:19:49;117295.69;;;-139.81
8533;BMP280;4304;53.876;10.662;2022-07-06T11:22:16;117295.69;;;-139.81
8533;BMP280;4304;53.876;10.662;2022-07-06T11:24:44;117295.69;;;-139.81
8533;BMP280;4304;53.876;10.662;2022-07-06T11:27:10;117293.66;;;-139.81
8533;BMP280;4304;53.876;10.662;2022-07-06T11:29:36;117293.66;;;-139.81
8533;BMP280;4304;53.876;10.662;2022-07-06T11:32:06;117293.66;;;-139.81
8533;BMP280;4304;53.876;10.662;2022-07-06T11:34:36;117295.69;;;-139.81
8533;BMP280;4304;53.876;10.662;2022-07-06T11:37:09;117295.69;;;-139.81
8533;BMP280;4304;53.876;10.662;2022-07-06T11:39:41;117295.69;;;-139.81
8533;BMP280;4304;53.876;10.662;2022-07-06T11:42:08;117295.69;;;-139.81
8533;BMP280;4304;53.876;10.662;2022-07-06T11:44:34;117295.69;;;-139.81
8533;BMP280;4304;53.876;10.662;2022-07-06T11:47:01;117293.66;;;-139.81
8533;BMP280;4304;53.876;10.662;2022-07-06T11:49:29;117293.66;;;-139.81
8533;BMP280;4304;53.876;10.662;2022-07-06T11:51:56;117293.66;;;-139.81
8533;BMP280;4304;53.876;10.662;2022-07-06T11:54:22;117293.66;;;-139.81
8533;BMP280;4304;53.876;10.662;2022-07-06T11:59:32;117293.66;;;-139.81
8533;BMP280;4304;53.876;10.662;2022-07-06T12:04:29;117293.66;;;-139.81
8533;BMP280;4304;53.876;10.662;2022-07-06T12:06:55;117293.66;;;-139.81
8533;BMP280;4304;53.876;10.662;2022-07-06T12:09:24;117293.66;;;-139.81
8533;BMP280;4304;53.876;10.662;2022-07-06T12:11:50;117293.66;;;-139.81
8533;BMP280;4304;53.876;10.662;2022-07-06T12:14:19;117293.66;;;-139.81
8533;BMP280;4304;53.876;10.662;2022-07-06T12:16:47;117293.66;;;-139.81
8533;BMP280;4304;53.876;10.662;2022-07-06T12:19:14;117293.66;;;-139.81
8533;BMP280;4304;53.876;10.662;2022-07-06T12:21:44;117293.66;;;-139.81
8533;BMP280;4304;53.876;10.662;2022-07-06T12:24:10;117293.66;;;-139.81
8533;BMP280;4304;53.876;10.662;2022-07-06T12:26:41;117293.66;;;-139.81
8533;BMP280;4304;53.876;10.662;2022-07-06T12:29:08;117293.66;;;-139.81
8533;BMP280;4304;53.876;10.662;2022-07-06T12:31:40;117293.66;;;-139.81
8533;BMP280;4304;53.876;10.662;2022-07-06T12:34:12;117293.66;;;-139.81
8533;BMP280;4304;53.876;10.662;2022-07-06T12:36:46;117293.66;;;-139.81
8533;BMP280;4304;53.876;10.662;2022-07-06T12:39:16;117293.66;;;-139.81
8533;BMP280;4304;53.876;10.662;2022-07-06T12:41:52;117293.66;;;-139.81
8533;BMP280;4304;53.876;10.662;2022-07-06T12:44:20;117293.66;;;-139.81
8533;BMP280;4304;53.876;10.662;2022-07-06T12:46:47;117293.66;;;-139.81
8533;BMP280;4304;53.876;10.662;2022-07-06T12:54:21;117293.66;;;-139.81
8533;BMP280;4304;53.876;10.662;2022-07-06T12:56:57;117293.66;;;-139.81
8533;BMP280;4304;53.876;10.662;2022-07-06T12:59:23;117293.66;;;-139.81
8533;BMP280;4304;53.876;10.662;2022-07-06T13:01:48;117295.69;;;-139.81
8533;BMP280;4304;53.876;10.662;2022-07-06T13:04:16;117293.66;;;-139.81
8533;BMP280;4304;53.876;10.662;2022-07-06T13:06:41;117293.66;;;-139.81
8533;BMP280;4304;53.876;10.662;2022-07-06T13:09:07;117293.66;;;-139.81
8533;BMP280;4304;53.876;10.662;2022-07-06T13:11:33;117293.66;;;-139.81
8533;BMP280;4304;53.876;10.662;2022-07-06T13:13:59;117293.66;;;-139.81
8533;BMP280;4304;53.876;10.662;2022-07-06T13:16:25;117293.66;;;-139.81
8533;BMP280;4304;53.876;10.662;2022-07-06T13:18:56;117293.66;;;-139.81
8533;BMP280;4304;53.876;10.662;2022-07-06T13:21:21;117293.66;;;-139.81
8533;BMP280;4304;53.876;10.662;2022-07-06T13:23:47;117293.66;;;-139.81
8533;BMP280;4304;53.876;10.662;2022-07-06T13:26:13;117293.66;;;-139.81
8533;BMP280;4304;53.876;10.662;2022-07-06T13:28:38;117293.66;;;-139.81
8533;BMP280;4304;53.876;10.662;2022-07-06T13:31:04;117293.66;;;-139.81
8533;BMP280;4304;53.876;10.662;2022-07-06T13:33:30;117033.91;;;-139.81
8533;BMP280;4304;53.876;10.662;2022-07-06T13:35:55;117033.91;;;-139.81
8533;BMP280;4304;53.876;10.662;2022-07-06T13:38:21;117033.91;;;-139.81
8533;BMP280;4304;53.876;10.662;2022-07-06T13:40:46;117033.91;;;-139.81
8533;BMP280;4304;53.876;10.662;2022-07-06T13:43:12;117033.91;;;-139.81
8533;BMP280;4304;53.876;10.662;2022-07-06T13:45:37;117033.91;;;-139.81
8533;BMP280;4304;53.876;10.662;2022-07-06T13:48:03;117033.91;;;-139.81
8533;BMP280;4304;53.876;10.662;2022-07-06T13:50:29;117033.91;;;-139.81
8533;BMP280;4304;53.876;10.662;2022-07-06T13:52:58;117033.91;;;-139.81
8533;BMP280;4304;53.876;10.662;2022-07-06T13:55:24;117033.91;;;-139.81
8533;BMP280;4304;53.876;10.662;2022-07-06T13:57:51;117033.91;;;-139.81